Create Custom Reports and Graphics: Custom Report

Alpine-Summit 8643' (Ward Mt.)

Current Conditions

5/5/21 5:30 PM (-07:00)
Updated Every 15 Minutes
Temp 62.7 °F   6.0
RH 39 %   2
Wet Bulb 48.8 °F   4.1
Dew Pt 37.7 °F   4.0
Wind Spd 26.3 mph   9.2
Wind Dir SSW | 209 °
Wind Gust 33.2 mph   10.7
WindChill 62.9 °F   6.2

Last 6 Hours

Alpine-Summit 8643' (Ward Mt.)

15 Minute Data | America/Los_Angeles
as of 5/5/21 5:44 PM PDT
Date & Time Temp (°F) RH (%) Dew Pt (°F) Wet Bulb (°F) Wind Dir (°) Wind Spd (mph) Wind Gust (mph) WindChill (°F)
5/5/21 - 1730 62.7 39 37.7 48.8 SSW | 209 26.3 33.2 62.9
5/5/21 - 1715 63.1 39 37.8 48.9 SW | 219 27.7 37.5 62.8
5/5/21 - 1700 62.9 39 37.3 48.7 SW | 214 27.7 35.2 62.7
5/5/21 - 1645 62.5 40 37.9 48.8 SW | 217 28.4 40.1 62.8
5/5/21 - 1630 62.5 39 37.5 48.6 SW | 220 25.1 37.2 63.0
5/5/21 - 1615 64.2 37 37.4 49.3 SSW | 207 26.5 36.9 63.9
5/5/21 - 1600 63.3 39 37.8 49.0 SSW | 209 26.8 35.0 62.9
5/5/21 - 1545 62.8 38 37.0 48.5 SSW | 211 26.8 37.2 62.3
5/5/21 - 1530 62.2 39 36.9 48.2 SW | 218 27.4 36.5 61.6
5/5/21 - 1515 61.7 37 35.3 47.4 SSW | 207 27.4 37.0 61.3
5/5/21 - 1500 61.2 38 35.3 47.2 SSW | 211 27.1 37.6 60.9
5/5/21 - 1445 60.4 37 33.9 46.3 SSW | 210 26.5 37.1 60.6
5/5/21 - 1430 61.1 35 33.0 46.2 SSW | 205 26.4 38.3 61.3
5/5/21 - 1415 61.4 32 31.6 45.9 SW | 214 19.4 27.9 60.5
5/5/21 - 1400 60.3 31 29.9 44.8 SSW | 212 24.3 36.0 60.1
5/5/21 - 1345 59.7 32 30.2 44.7 SSW | 213 22.9 29.9 59.5
5/5/21 - 1330 59.4 32 29.5 44.3 SSW | 205 20.3 30.0 59.3
5/5/21 - 1315 59.0 32 29.3 44.0 SW | 230 16.8 22.8 58.5
5/5/21 - 1300 58.2 34 30.0 44.0 SSW | 210 10.4 19.3 57.7
5/5/21 - 1245 57.6 35 30.0 43.7 SSW | 209 11.9 17.8 56.9
5/5/21 - 1230 56.0 35 28.8 42.5 SSW | 198 8.8 14.0 55.4
5/5/21 - 1215 54.8 38 29.5 42.3 S | 178 5.2 12.6 54.1
5/5/21 - 1200 53.1 40 29.5 41.5 SSE | 148 3.7 8.7 52.3
5/5/21 - 1145 52.4 42 29.8 41.3 ESE | 120 3.6 10.3 52.1
Max 64.2 42 37.9 49.3 - 28.4 40.1 63.9
Avg 60.1 37 33.5 46.0 - 20.7 29.5 59.8
Min 52.4 31 28.8 41.3 - 3.6 8.7 52.1

Last 30 Days

Alpine-Summit 8643' (Ward Mt.)

Daily Data | America/Los_Angeles
as of 5/5/21 5:44 PM PDT
Date Daily Max Temp (°F) Time of Max Temp Daily Min Temp (°F) Time of Min Temp Wind Spd (mph) Daily Max Wind (mph) Max RH (%) Min RH (%) Wet Bulb (°F)
5/4/21 58.4 1615 38.5 0358 15.5 48.4 58 31 37.4
5/3/21 61.2 1718 31.3 0609 27.2 57.7 73 22 33.7
5/2/21 56.3 1633 32.7 0547 17.0 52.0 95 32 35.9
5/1/21 52.3 1641 37.6 2353 36.7 68.5 87 18 35.5
4/30/21 62.1 1544 45.1 2354 26.5 48.4 55 24 40.2
4/29/21 63.6 1557 40.6 0100 22.7 52.5 56 25 39.5
4/28/21 62.4 1729 26.9 0215 23.1 55.0 91 17 32.3
4/27/21 36.5 1611 20.7 0259 36.3 61.8 100 88 26.8
4/26/21 32.9 1553 14.5 0614 24.7 53.2 97 94 21.1
4/25/21 28.2 1502 18.9 2359 58.4 91.6 98 95 24.8
4/24/21 35.1 1603 25.2 2035 60.1 97.0 99 66 28.4
4/23/21 48.9 1608 33.3 2349 28.5 63.9 98 44 34.0
4/22/21 48.0 1521 32.7 0244 22.8 56.6 83 31 31.8
4/21/21 53.1 1708 28.6 0558 16.4 46.4 95 25 32.8
4/20/21 51.3 1726 33.5 2341 20.2 53.5 86 34 34.3
4/19/21 56.5 1644 37.5 0559 13.9 42.2 60 27 35.6
4/18/21 60.3 1654 31.7 0626 22.6 63.4 52 14 32.0
4/17/21 47.3 1654 28.0 0622 49.0 83.5 68 30 28.3
4/16/21 51.7 1627 27.8 0619 19.4 40.9 85 33 30.6
4/15/21 44.5 1504 22.6 0535 8.2 28.5 94 43 27.5
4/14/21 39.9 1251 21.4 0530 9.7 28.5 98 59 26.8
4/13/21 40.9 1526 23.9 2333 34.8 75.3 97 45 28.3
4/12/21 54.1 1555 29.1 0613 22.1 37.1 67 27 31.4
4/11/21 55.6 1549 34.4 2359 13.2 37.1 61 19 32.7
4/10/21 51.9 1538 32.5 0512 18.5 40.7 71 23 31.9
4/9/21 48.9 1606 34.4 2328 23.8 42.2 81 39 32.6
4/8/21 46.3 1707 28.7 0550 23.8 51.1 66 39 29.3
4/7/21 44.0 1537 29.9 2348 35.9 75.0 95 34 30.6
4/6/21 50.9 1558 32.2 0518 13.6 37.4 - 30 32.6
4/5/21 44.6 1733 28.6 0919 33.7 65.0 94 42 30.9
Max 63.6 - 45.1 - 60.1 97.0 100 95 40.2
Avg - - - - 25.9 - - - 31.7
Min 28.2 - 14.5 - 8.2 28.5 52 14 21.1
Calm: 0.0%
Calm: 0.0%